CheckWX is a tool to help pilots better visualize weather data.  It is not intended as a substitute for an official pre-flight weather briefing.

18:08:26 UTC

CYHA METAR
Quaqtaq Airport
Quaqtaq, Canada
Current

1 hour ago

CYHA 211700Z 09023G29KT 5SM -RADZ BR BKN003 OVC012 04/04 A2946 RMK FG1ST5ST2 SLP980
Observed
Jul-21 @ 17:00 UTC
Wind
  • 090° at 23 KTS
  • Gusting to 29 KTS
Visibility
5 SM
Flight Rules
LIFR
Conditions
Light Rain, Light Drizzle, Mist
Cloud Levels
  • Broken at 300' AGL
  • Overcast at 1,200' AGL
Temperature
C / 39°F
Dewpoint
C / 39°F
Humidity
100%
Altimeter
29.46" Hg
Pressure
997.62 hPa
Previous

2 hours ago

CYHA 211600Z 09024G30KT 1 1/2SM -RADZ FEW007 OVC032 04/04 A2946 RMK ST2NS6 SLP980
Observed
Jul-21 @ 16:00 UTC
Wind
  • 090° at 24 KTS
  • Gusting to 30 KTS
Visibility
1 1/2 SM
Flight Rules
IFR
Conditions
Light Rain, Light Drizzle
Cloud Levels
  • Few at 700' AGL
  • Overcast at 3,200' AGL
Temperature
C / 39°F
Dewpoint
C / 39°F
Humidity
100%
Altimeter
29.46" Hg
Pressure
997.62 hPa
Previous

3 hours ago

CYHA 211500Z 09024KT 1 3/4SM -RADZ OVC035 04/04 A2946 RMK NS8 SLP979
Observed
Jul-21 @ 15:00 UTC
Wind
  • 090° at 24 KTS
Visibility
1 3/4 SM
Flight Rules
IFR
Conditions
Light Rain, Light Drizzle
Cloud Levels
  • Overcast at 3,500' AGL
Temperature
C / 39°F
Dewpoint
C / 39°F
Humidity
100%
Altimeter
29.46" Hg
Pressure
997.62 hPa